createdAt,value
2023-05-05T00:01:02.434Z,101312.38
2023-05-05T00:03:29.873Z,101312.34
2023-05-05T00:05:57.470Z,101324.16
2023-05-05T00:08:24.691Z,101318.63
2023-05-05T00:10:53.699Z,101308.19
2023-05-05T00:13:21.803Z,101317.81
2023-05-05T00:15:51.041Z,101313.09
2023-05-05T00:18:18.534Z,101309.44
2023-05-05T00:20:47.200Z,101311.06
2023-05-05T00:23:15.856Z,101319.88
2023-05-05T00:25:42.976Z,101316.34
2023-05-05T00:28:10.373Z,101307.34
2023-05-05T00:30:39.698Z,101315.84
2023-05-05T00:33:06.847Z,101316.00
2023-05-05T00:35:34.400Z,101306.59
2023-05-05T00:38:01.380Z,101308.44
2023-05-05T00:40:28.638Z,101317.81
2023-05-05T00:42:55.620Z,101322.53
2023-05-05T00:45:22.676Z,101334.84
2023-05-05T00:47:52.846Z,101310.88
2023-05-05T00:50:31.102Z,101314.28
2023-05-05T00:53:04.057Z,101300.56
2023-05-05T00:55:32.211Z,101298.50
2023-05-05T00:58:00.646Z,101300.56
2023-05-05T01:00:28.642Z,101313.97
2023-05-05T01:02:56.135Z,101328.28
2023-05-05T01:05:27.050Z,101313.25
2023-05-05T01:08:18.165Z,101314.88
2023-05-05T01:11:03.284Z,101315.19
2023-05-05T01:13:42.914Z,101311.19
2023-05-05T01:16:32.402Z,101305.00
2023-05-05T01:19:48.660Z,101316.25
2023-05-05T01:22:20.796Z,101301.22
2023-05-05T01:25:14.784Z,101312.22
2023-05-05T01:28:06.479Z,101313.91
2023-05-05T01:31:00.564Z,101319.38
2023-05-05T01:33:36.960Z,101323.81
2023-05-05T01:36:12.294Z,101315.47
2023-05-05T01:38:42.655Z,101318.78
2023-05-05T01:41:17.764Z,101314.88
2023-05-05T01:43:49.862Z,101303.22
2023-05-05T01:46:18.313Z,101280.38
2023-05-05T01:48:47.024Z,101286.94
2023-05-05T01:51:16.203Z,101309.81
2023-05-05T01:53:43.871Z,101312.59
2023-05-05T01:56:13.116Z,101298.38
2023-05-05T01:58:44.346Z,101298.66
2023-05-05T02:01:12.988Z,101303.03
2023-05-05T02:03:42.055Z,101319.50
2023-05-05T02:06:10.445Z,101309.59
2023-05-05T02:08:39.470Z,101316.34
2023-05-05T02:11:09.957Z,101318.50
2023-05-05T02:13:37.835Z,101332.75
2023-05-05T02:16:05.957Z,101327.16
2023-05-05T02:18:35.908Z,101318.22
2023-05-05T02:21:03.870Z,101319.81
2023-05-05T02:23:31.800Z,101327.78
2023-05-05T02:26:07.405Z,101331.56
2023-05-05T02:29:07.517Z,101319.88
2023-05-05T02:31:49.451Z,101327.53
2023-05-05T02:34:27.763Z,101331.22
2023-05-05T02:36:58.603Z,101332.78
2023-05-05T02:39:32.311Z,101337.31
2023-05-05T02:42:05.228Z,101343.44
2023-05-05T02:44:33.694Z,101337.91
2023-05-05T02:47:04.963Z,101344.47
2023-05-05T02:49:31.973Z,101342.97
2023-05-05T02:51:59.097Z,101341.06
2023-05-05T02:54:27.298Z,101342.53
2023-05-05T02:56:56.501Z,101337.75
2023-05-05T02:59:41.850Z,101340.81
2023-05-05T03:02:28.048Z,101329.69
2023-05-05T03:05:08.973Z,101335.25
2023-05-05T03:08:03.583Z,101340.19
2023-05-05T03:10:38.751Z,101332.59
2023-05-05T03:13:10.290Z,101330.78
2023-05-05T03:15:51.800Z,101340.16
2023-05-05T03:18:22.824Z,101344.31
2023-05-05T03:20:50.431Z,101336.69
2023-05-05T03:23:20.951Z,101337.78
2023-05-05T03:25:49.964Z,101336.81
2023-05-05T03:28:18.586Z,101323.66
2023-05-05T03:30:45.876Z,101311.34
2023-05-05T03:33:12.989Z,101300.69
2023-05-05T03:35:39.899Z,101318.56
2023-05-05T03:38:06.856Z,101318.44
2023-05-05T03:40:43.596Z,101317.63
2023-05-05T03:43:11.494Z,101327.44
2023-05-05T03:45:38.723Z,101328.56
2023-05-05T03:48:06.561Z,101324.53
2023-05-05T03:50:33.543Z,101331.53
2023-05-05T03:53:00.526Z,101331.69
2023-05-05T03:55:27.474Z,101333.03
2023-05-05T03:57:54.472Z,101319.88
2023-05-05T04:00:22.050Z,101335.00
2023-05-05T04:02:49.100Z,101333.56
2023-05-05T04:05:16.139Z,101334.22
2023-05-05T04:07:43.312Z,101328.50
2023-05-05T04:10:10.615Z,101339.75
2023-05-05T04:12:37.707Z,101334.63
2023-05-05T04:15:05.602Z,101338.53
2023-05-05T04:17:32.621Z,101330.53
2023-05-05T04:19:59.674Z,101332.75
2023-05-05T04:22:26.826Z,101336.28
2023-05-05T04:24:54.058Z,101333.41
2023-05-05T04:27:21.021Z,101327.47
2023-05-05T04:29:48.065Z,101332.00
2023-05-05T04:32:15.052Z,101342.63
2023-05-05T04:34:42.089Z,101342.66
2023-05-05T04:37:09.258Z,101337.72
2023-05-05T04:39:36.255Z,101340.81
2023-05-05T04:42:03.443Z,101335.47
2023-05-05T04:44:30.607Z,101338.53
2023-05-05T04:46:58.127Z,101344.06
2023-05-05T04:49:25.088Z,101347.13
2023-05-05T04:51:52.059Z,101342.66
2023-05-05T04:54:19.036Z,101356.22
2023-05-05T04:56:46.042Z,101365.44
2023-05-05T04:59:12.992Z,101355.16
2023-05-05T05:01:40.140Z,101360.63
2023-05-05T05:04:08.138Z,101360.03
2023-05-05T05:06:35.188Z,101357.28
2023-05-05T05:09:02.367Z,101369.78
2023-05-05T05:11:29.399Z,101360.44
2023-05-05T05:13:56.385Z,101372.91
2023-05-05T05:16:25.341Z,101377.03
2023-05-05T05:18:52.417Z,101373.81
2023-05-05T05:21:19.421Z,101378.13
2023-05-05T05:23:46.386Z,101379.16
2023-05-05T05:26:13.482Z,101376.47
2023-05-05T05:28:41.660Z,101377.03
2023-05-05T05:31:08.619Z,101387.91
2023-05-05T05:33:35.598Z,101384.22
2023-05-05T05:36:02.626Z,101389.53
2023-05-05T05:38:29.563Z,101397.97
2023-05-05T05:40:56.474Z,101402.00
2023-05-05T05:43:23.427Z,101400.31
2023-05-05T05:45:50.564Z,101402.41
2023-05-05T05:48:17.523Z,101403.03
2023-05-05T05:50:44.476Z,101398.78
2023-05-05T05:53:11.448Z,101407.66
2023-05-05T05:55:38.380Z,101412.09
2023-05-05T05:58:05.444Z,101405.81
2023-05-05T06:00:32.547Z,101397.88
2023-05-05T06:02:59.579Z,101406.16
2023-05-05T06:05:27.033Z,101414.28
2023-05-05T06:07:54.027Z,101421.81
2023-05-05T06:12:52.515Z,101420.00
2023-05-05T06:15:19.567Z,101412.38
2023-05-05T06:17:46.640Z,101415.84
2023-05-05T06:20:13.976Z,101413.50
2023-05-05T06:22:41.181Z,101399.09
2023-05-05T06:25:08.664Z,101401.19
2023-05-05T06:27:35.657Z,101404.88
2023-05-05T06:30:02.708Z,101401.84
2023-05-05T06:32:29.635Z,101388.16
2023-05-05T06:34:56.559Z,101388.06
2023-05-05T06:37:23.619Z,101384.19
2023-05-05T06:39:50.782Z,101376.19
2023-05-05T06:42:17.703Z,101380.97
2023-05-05T06:44:44.936Z,101384.50
2023-05-05T06:47:11.886Z,101387.66
2023-05-05T06:49:38.948Z,101396.81
2023-05-05T06:52:08.308Z,101386.31
2023-05-05T06:54:35.394Z,101383.53
2023-05-05T06:57:02.602Z,101386.28
2023-05-05T06:59:29.612Z,101388.44
2023-05-05T07:01:56.720Z,101403.84
2023-05-05T07:04:23.749Z,101406.06
2023-05-05T07:06:50.793Z,101417.41
2023-05-05T07:09:18.684Z,101421.00
2023-05-05T07:11:46.425Z,101425.47
2023-05-05T07:14:13.426Z,101429.81
2023-05-05T07:16:40.615Z,101444.22
2023-05-05T07:19:07.644Z,101445.22
2023-05-05T07:21:35.067Z,101460.84
2023-05-05T07:24:03.792Z,101458.06
2023-05-05T07:26:30.984Z,101443.72
2023-05-05T07:28:59.090Z,101448.75
2023-05-05T07:31:26.675Z,101445.91
2023-05-05T07:33:53.941Z,101449.38
2023-05-05T07:36:21.024Z,101441.03
2023-05-05T07:38:48.667Z,101451.25
2023-05-05T07:41:15.999Z,101442.28
2023-05-05T07:43:44.641Z,101438.16
2023-05-05T07:46:12.327Z,101447.72
2023-05-05T07:48:41.517Z,101458.66
2023-05-05T07:51:09.823Z,101460.03
2023-05-05T07:53:37.213Z,101462.69
2023-05-05T07:56:04.378Z,101454.13
2023-05-05T07:58:31.373Z,101458.41
2023-05-05T08:00:58.387Z,101456.13
2023-05-05T08:03:25.654Z,101442.47
2023-05-05T08:05:55.484Z,101444.09
2023-05-05T08:08:26.952Z,101457.59
2023-05-05T08:10:54.557Z,101461.09
2023-05-05T08:13:21.627Z,101455.88
2023-05-05T08:15:48.656Z,101455.56
2023-05-05T08:18:15.666Z,101465.13
2023-05-05T08:20:42.735Z,101462.91
2023-05-05T08:23:09.667Z,101461.84
2023-05-05T08:25:36.657Z,101465.28
2023-05-05T08:28:03.795Z,101464.00
2023-05-05T08:30:30.828Z,101460.94
2023-05-05T08:32:58.786Z,101449.81
2023-05-05T08:35:25.749Z,101453.53
2023-05-05T08:37:52.795Z,101450.38
2023-05-05T08:40:25.087Z,101455.84
2023-05-05T08:42:52.098Z,101464.81
2023-05-05T08:45:19.014Z,101458.88
2023-05-05T08:47:46.333Z,101450.75
2023-05-05T08:50:14.117Z,101449.19
2023-05-05T08:52:47.245Z,101466.63
2023-05-05T08:55:26.438Z,101462.38
2023-05-05T08:57:57.379Z,101462.75
2023-05-05T09:00:27.259Z,101477.75
2023-05-05T09:02:58.237Z,101463.38
2023-05-05T09:05:26.569Z,101468.78
2023-05-05T09:07:53.857Z,101469.53
2023-05-05T09:10:20.987Z,101458.97
2023-05-05T09:12:50.434Z,101456.66
2023-05-05T09:15:17.559Z,101466.38
2023-05-05T09:17:45.551Z,101461.16
2023-05-05T09:20:14.824Z,101461.72
2023-05-05T09:22:47.321Z,101464.94
2023-05-05T09:25:18.495Z,101465.34
2023-05-05T09:27:48.239Z,101473.09
2023-05-05T09:30:18.944Z,101463.66
2023-05-05T09:32:55.592Z,101468.66
2023-05-05T09:35:23.665Z,101474.28
2023-05-05T09:37:50.763Z,101469.94
2023-05-05T09:40:20.012Z,101475.94
2023-05-05T09:42:47.705Z,101468.66
2023-05-05T09:45:17.682Z,101475.91
2023-05-05T09:47:48.726Z,101467.38
2023-05-05T09:50:18.820Z,101480.19
2023-05-05T09:53:03.350Z,101472.97
2023-05-05T09:55:33.382Z,101476.81
2023-05-05T09:58:23.846Z,101477.66
2023-05-05T10:00:51.248Z,101476.66
2023-05-05T10:03:18.959Z,101479.56
2023-05-05T10:05:53.210Z,101493.09
2023-05-05T10:08:32.332Z,101480.38
2023-05-05T10:11:05.269Z,101480.34
2023-05-05T10:13:37.158Z,101477.41
2023-05-05T10:16:05.270Z,101483.81
2023-05-05T10:18:32.813Z,101486.22
2023-05-05T10:21:04.409Z,101485.97
2023-05-05T10:23:48.864Z,101489.91
2023-05-05T10:26:20.078Z,101487.50
2023-05-05T10:28:57.066Z,101477.59
2023-05-05T10:31:36.668Z,101477.22
2023-05-05T10:34:10.960Z,101476.53
2023-05-05T10:36:39.301Z,101472.81
2023-05-05T10:39:10.912Z,101480.50
2023-05-05T10:41:38.395Z,101473.25
2023-05-05T10:44:06.209Z,101474.66
2023-05-05T10:46:33.362Z,101467.28
2023-05-05T10:49:13.079Z,101464.56
2023-05-05T10:51:52.174Z,101463.25
2023-05-05T10:54:45.070Z,101453.44
2023-05-05T10:57:13.517Z,101453.28
2023-05-05T10:59:42.322Z,101444.88
2023-05-05T11:02:40.197Z,101427.63
2023-05-05T11:05:13.297Z,101433.28
2023-05-05T11:07:42.054Z,101425.00
2023-05-05T11:10:11.469Z,101419.91
2023-05-05T11:12:59.388Z,101425.34
2023-05-05T11:15:29.295Z,101429.13
2023-05-05T11:18:02.626Z,101411.56
2023-05-05T11:20:40.653Z,101405.16
2023-05-05T11:23:07.776Z,101415.22
2023-05-05T11:25:38.914Z,101413.38
2023-05-05T11:28:11.542Z,101409.84
2023-05-05T11:30:57.497Z,101416.72
2023-05-05T11:33:32.511Z,101402.28
2023-05-05T11:36:09.273Z,101415.31
2023-05-05T11:39:08.809Z,101418.69
2023-05-05T11:42:25.074Z,101405.47
2023-05-05T11:44:52.717Z,101399.69
2023-05-05T11:47:19.584Z,101400.34
2023-05-05T11:49:46.740Z,101399.59
2023-05-05T11:52:15.076Z,101395.06
2023-05-05T11:54:48.983Z,101392.59
2023-05-05T11:57:20.958Z,101393.81
2023-05-05T12:00:01.517Z,101406.47
2023-05-05T12:02:30.142Z,101400.19
2023-05-05T12:04:59.094Z,101398.50
2023-05-05T12:07:31.600Z,101387.38
2023-05-05T12:09:58.706Z,101405.38
2023-05-05T12:12:36.258Z,101405.06
2023-05-05T12:15:04.073Z,101395.38
2023-05-05T12:17:58.579Z,101395.13
2023-05-05T12:20:32.564Z,101385.19
2023-05-05T12:23:01.836Z,101373.63
2023-05-05T12:25:36.767Z,101379.25
2023-05-05T12:28:08.444Z,101383.00
2023-05-05T12:30:36.010Z,101384.16
2023-05-05T12:33:08.157Z,101378.25
2023-05-05T12:35:35.853Z,101380.59
2023-05-05T12:38:03.463Z,101374.31
2023-05-05T12:40:50.015Z,101369.41
2023-05-05T12:43:30.604Z,101369.97
2023-05-05T12:46:11.995Z,101369.06
2023-05-05T12:48:44.968Z,101378.09
2023-05-05T12:51:19.752Z,101376.44
2023-05-05T12:53:48.796Z,101368.78
2023-05-05T12:56:36.998Z,101367.22
2023-05-05T12:59:09.220Z,101365.25
2023-05-05T13:01:48.126Z,101361.84
2023-05-05T13:04:15.434Z,101364.94
2023-05-05T13:06:48.172Z,101365.75
2023-05-05T13:09:28.285Z,101360.34
2023-05-05T13:11:55.403Z,101374.16
2023-05-05T13:14:23.284Z,101364.44
2023-05-05T13:16:50.569Z,101368.50
2023-05-05T13:19:17.669Z,101364.69
2023-05-05T13:21:44.606Z,101357.19
2023-05-05T13:24:22.979Z,101352.94
2023-05-05T13:26:54.102Z,101347.69
2023-05-05T13:29:21.053Z,101353.81
2023-05-05T13:31:48.113Z,101351.94
2023-05-05T13:34:15.120Z,101359.78
2023-05-05T13:36:42.068Z,101353.03
2023-05-05T13:39:09.106Z,101355.22
2023-05-05T13:41:36.249Z,101345.53
2023-05-05T13:44:03.265Z,101343.56
2023-05-05T13:46:30.738Z,101347.50
2023-05-05T13:48:57.810Z,101349.19
2023-05-05T13:51:24.765Z,101345.03
2023-05-05T13:53:52.608Z,101347.25
2023-05-05T13:56:19.855Z,101349.38
2023-05-05T13:58:46.825Z,101341.28
2023-05-05T14:01:13.879Z,101346.00
2023-05-05T14:03:40.895Z,101352.47
2023-05-05T14:06:09.305Z,101344.09
2023-05-05T14:08:36.517Z,101346.75
2023-05-05T14:11:03.774Z,101344.81
2023-05-05T14:13:31.250Z,101337.00
2023-05-05T14:15:58.465Z,101336.75
2023-05-05T14:18:28.393Z,101333.09
2023-05-05T14:20:55.386Z,101336.59
2023-05-05T14:23:22.327Z,101332.75
2023-05-05T14:25:49.443Z,101342.03
2023-05-05T14:28:16.371Z,101338.84
2023-05-05T14:30:43.344Z,101344.38
2023-05-05T14:33:10.406Z,101339.16
2023-05-05T14:35:37.334Z,101342.53
2023-05-05T14:38:04.314Z,101341.72
2023-05-05T14:40:31.422Z,101347.91
2023-05-05T14:42:58.407Z,101344.63
2023-05-05T14:45:26.367Z,101345.63
2023-05-05T14:47:54.591Z,101337.94
2023-05-05T14:50:21.624Z,101327.50
2023-05-05T14:52:48.625Z,101318.75
2023-05-05T14:55:15.624Z,101326.25
2023-05-05T14:57:42.593Z,101330.94
2023-05-05T15:00:11.043Z,101332.31
2023-05-05T15:02:38.028Z,101325.91
2023-05-05T15:05:05.847Z,101338.13
2023-05-05T15:07:32.910Z,101331.84
2023-05-05T15:09:59.885Z,101326.13
2023-05-05T15:12:26.854Z,101331.16
2023-05-05T15:14:55.346Z,101330.63
2023-05-05T15:17:22.427Z,101314.59
2023-05-05T15:19:49.514Z,101313.44
2023-05-05T15:22:16.551Z,101317.47
2023-05-05T15:24:43.464Z,101316.28
2023-05-05T15:27:10.500Z,101319.06
2023-05-05T15:29:37.463Z,101310.91
2023-05-05T15:32:04.704Z,101307.09
2023-05-05T15:34:31.816Z,101306.44
2023-05-05T15:36:58.722Z,101304.38
2023-05-05T15:39:25.827Z,101299.38
2023-05-05T15:41:53.025Z,101298.59
2023-05-05T15:44:19.934Z,101303.75
2023-05-05T15:46:49.740Z,101302.88
2023-05-05T15:49:17.350Z,101296.88
2023-05-05T15:51:44.294Z,101288.59
2023-05-05T15:54:11.297Z,101288.66
2023-05-05T15:56:38.280Z,101301.63
2023-05-05T15:59:05.392Z,101292.16
2023-05-05T16:01:33.678Z,101301.47
2023-05-05T16:04:01.287Z,101309.34
2023-05-05T16:06:28.605Z,101300.28
2023-05-05T16:08:58.494Z,101306.84
2023-05-05T16:11:26.717Z,101300.47
2023-05-05T16:13:54.173Z,101301.88
2023-05-05T16:16:21.737Z,101305.81
2023-05-05T16:18:48.765Z,101316.41
2023-05-05T16:21:15.824Z,101308.81
2023-05-05T16:23:43.516Z,101311.00
2023-05-05T16:26:10.450Z,101318.13
2023-05-05T16:28:37.730Z,101314.13
2023-05-05T16:31:04.901Z,101320.50
2023-05-05T16:33:31.979Z,101326.16
2023-05-05T16:35:58.885Z,101325.44
2023-05-05T16:38:25.918Z,101316.16
2023-05-05T16:40:52.935Z,101325.41
2023-05-05T16:43:19.927Z,101323.38
2023-05-05T16:45:46.860Z,101340.03
2023-05-05T16:48:14.731Z,101330.34
2023-05-05T16:50:41.800Z,101334.56
2023-05-05T16:53:10.039Z,101326.69
2023-05-05T16:55:40.111Z,101328.66
2023-05-05T16:58:07.111Z,101335.34
2023-05-05T17:00:34.057Z,101320.81
2023-05-05T17:03:01.228Z,101329.47
2023-05-05T17:05:28.282Z,101332.34
2023-05-05T17:07:55.249Z,101328.28
2023-05-05T17:10:22.339Z,101320.22
2023-05-05T17:12:49.357Z,101324.84
2023-05-05T17:15:16.672Z,101308.22
2023-05-05T17:17:43.690Z,101310.69
2023-05-05T17:20:12.083Z,101316.13
2023-05-05T17:22:39.119Z,101309.56
2023-05-05T17:25:07.142Z,101301.97
2023-05-05T17:27:34.249Z,101307.94
2023-05-05T17:30:01.213Z,101313.56
2023-05-05T17:32:28.234Z,101313.09
2023-05-05T17:34:56.436Z,101313.06
2023-05-05T17:37:23.485Z,101308.81
2023-05-05T17:39:50.513Z,101310.75
2023-05-05T17:42:22.722Z,101313.88
2023-05-05T17:44:53.515Z,101307.78
2023-05-05T17:47:22.420Z,101315.06
2023-05-05T17:49:49.816Z,101313.78
2023-05-05T17:52:16.762Z,101311.19
2023-05-05T17:54:43.790Z,101317.50
2023-05-05T17:57:10.781Z,101313.97
2023-05-05T17:59:37.711Z,101319.03
2023-05-05T18:02:05.116Z,101314.88
2023-05-05T18:04:32.816Z,101320.03
2023-05-05T18:06:59.980Z,101318.34
2023-05-05T18:09:26.989Z,101317.91
2023-05-05T18:11:55.500Z,101316.16
2023-05-05T18:14:23.784Z,101318.06
2023-05-05T18:16:53.999Z,101319.53
2023-05-05T18:19:23.113Z,101317.94
2023-05-05T18:21:53.176Z,101318.34
2023-05-05T18:24:20.735Z,101318.00
2023-05-05T18:26:50.953Z,101320.03
2023-05-05T18:29:22.037Z,101319.50
2023-05-05T18:31:52.830Z,101323.00
2023-05-05T18:34:20.905Z,101320.13
2023-05-05T18:36:54.195Z,101327.41
2023-05-05T18:39:21.350Z,101320.78
2023-05-05T18:41:48.330Z,101328.59
2023-05-05T18:44:16.496Z,101322.09
2023-05-05T18:46:43.502Z,101324.50
2023-05-05T18:49:10.494Z,101330.09
2023-05-05T18:51:37.454Z,101322.97
2023-05-05T18:54:04.534Z,101324.75
2023-05-05T18:56:31.481Z,101326.00
2023-05-05T18:58:58.557Z,101325.44
2023-05-05T19:01:25.864Z,101333.84
2023-05-05T19:03:53.038Z,101342.69
2023-05-05T19:06:20.114Z,101340.16
2023-05-05T19:08:47.167Z,101346.84
2023-05-05T19:11:15.159Z,101352.38
2023-05-05T19:13:42.605Z,101354.22
2023-05-05T19:16:11.356Z,101351.19
2023-05-05T19:18:38.928Z,101352.91
2023-05-05T19:21:06.288Z,101355.94
2023-05-05T19:23:33.565Z,101353.28
2023-05-05T19:26:00.950Z,101349.53
2023-05-05T19:28:27.913Z,101344.84
2023-05-05T19:30:54.853Z,101353.47
2023-05-05T19:33:22.325Z,101364.66
2023-05-05T19:35:49.747Z,101346.03
2023-05-05T19:38:16.840Z,101351.56
2023-05-05T19:40:43.874Z,101359.09
2023-05-05T19:43:10.835Z,101364.66
2023-05-05T19:45:38.032Z,101373.78
2023-05-05T19:48:05.590Z,101376.78
2023-05-05T19:50:32.650Z,101371.38
2023-05-05T19:52:59.628Z,101363.97
2023-05-05T19:55:26.841Z,101370.56
2023-05-05T19:57:53.942Z,101376.63
2023-05-05T20:00:21.038Z,101361.94
2023-05-05T20:02:49.128Z,101367.44
2023-05-05T20:05:17.624Z,101371.47
2023-05-05T20:07:46.419Z,101366.38
2023-05-05T20:10:13.805Z,101361.97
2023-05-05T20:12:47.752Z,101370.44
2023-05-05T20:15:19.551Z,101361.59
2023-05-05T20:17:47.779Z,101363.72
2023-05-05T20:20:21.866Z,101369.50
2023-05-05T20:22:49.655Z,101373.72
2023-05-05T20:25:16.905Z,101376.59
2023-05-05T20:27:45.296Z,101370.63
2023-05-05T20:30:13.128Z,101373.22
2023-05-05T20:32:40.821Z,101379.94
2023-05-05T20:35:09.060Z,101378.84
2023-05-05T20:37:36.121Z,101383.97
2023-05-05T20:40:03.843Z,101378.31
2023-05-05T20:42:30.934Z,101376.41
2023-05-05T20:44:58.031Z,101378.31
2023-05-05T20:47:25.106Z,101381.22
2023-05-05T20:49:52.498Z,101378.56
2023-05-05T20:52:19.744Z,101387.97
2023-05-05T20:54:46.735Z,101375.22
2023-05-05T20:57:13.704Z,101388.44
2023-05-05T20:59:40.676Z,101379.38
2023-05-05T21:02:07.880Z,101376.09
2023-05-05T21:04:34.872Z,101375.34
2023-05-05T21:07:02.170Z,101380.22
2023-05-05T21:09:29.318Z,101372.28
2023-05-05T21:11:56.307Z,101376.81
2023-05-05T21:14:23.742Z,101379.22
2023-05-05T21:16:50.904Z,101385.13
2023-05-05T21:19:17.877Z,101388.81
2023-05-05T21:21:44.832Z,101384.97
2023-05-05T21:24:13.053Z,101386.94
2023-05-05T21:26:44.335Z,101387.56
2023-05-05T21:29:12.057Z,101389.41
2023-05-05T21:31:39.065Z,101392.91
2023-05-05T21:34:06.005Z,101378.88
2023-05-05T21:36:33.904Z,101386.13
2023-05-05T21:39:01.162Z,101384.38
2023-05-05T21:41:28.310Z,101388.75
2023-05-05T21:43:55.692Z,101391.72
2023-05-05T21:46:22.829Z,101387.09
2023-05-05T21:48:49.913Z,101383.97
2023-05-05T21:51:17.400Z,101394.69
2023-05-05T21:53:44.426Z,101388.72
2023-05-05T21:56:11.410Z,101391.19
2023-05-05T21:58:38.422Z,101384.38
2023-05-05T22:01:05.536Z,101384.28
2023-05-05T22:03:35.046Z,101385.75
2023-05-05T22:06:02.985Z,101373.72
2023-05-05T22:08:29.921Z,101378.94
2023-05-05T22:10:56.858Z,101374.06
2023-05-05T22:13:23.969Z,101378.59
2023-05-05T22:15:50.969Z,101367.97
2023-05-05T22:18:17.892Z,101384.41
2023-05-05T22:20:44.997Z,101368.91
2023-05-05T22:23:11.954Z,101374.31
2023-05-05T22:25:38.867Z,101370.88
2023-05-05T22:28:05.929Z,101368.06
2023-05-05T22:30:33.115Z,101368.97
2023-05-05T22:33:00.167Z,101367.28
2023-05-05T22:35:27.458Z,101379.25
2023-05-05T22:37:54.438Z,101364.66
2023-05-05T22:40:21.429Z,101373.13
2023-05-05T22:42:48.425Z,101376.38
2023-05-05T22:45:15.740Z,101376.66
2023-05-05T22:47:42.750Z,101384.47
2023-05-05T22:50:10.400Z,101372.34
2023-05-05T22:52:37.329Z,101375.25
2023-05-05T22:55:04.780Z,101381.81
2023-05-05T22:57:31.839Z,101381.59
2023-05-05T22:59:58.745Z,101367.66
2023-05-05T23:02:26.713Z,101369.72
2023-05-05T23:04:53.928Z,101370.53
2023-05-05T23:07:21.009Z,101375.66
2023-05-05T23:09:48.348Z,101374.81
2023-05-05T23:12:15.361Z,101370.03
2023-05-05T23:14:42.369Z,101375.84
2023-05-05T23:17:10.249Z,101370.03
2023-05-05T23:19:37.510Z,101379.72
2023-05-05T23:22:04.811Z,101370.50
2023-05-05T23:24:31.829Z,101367.19
2023-05-05T23:27:03.526Z,101374.78
2023-05-05T23:29:30.767Z,101374.81
2023-05-05T23:31:58.254Z,101370.91
2023-05-05T23:34:26.778Z,101378.50
2023-05-05T23:36:53.698Z,101376.28
2023-05-05T23:39:20.654Z,101375.06
2023-05-05T23:41:47.725Z,101378.94
2023-05-05T23:44:14.739Z,101375.66
2023-05-05T23:46:41.771Z,101367.28
2023-05-05T23:49:08.853Z,101372.56
2023-05-05T23:51:36.415Z,101365.97
2023-05-05T23:54:03.320Z,101366.13
2023-05-05T23:56:30.514Z,101365.56
2023-05-05T23:58:57.504Z,101373.94
